• Join FlightAware (Why Join?)
  • Login
  • US Flag 
02:22AM EST


 

Airport Tracker/Info


-or-


 

Live Flight TrackerFlight Track Log ✈ UAL4678 ✈ 19-Dec-2013 ✈ KMSP - KEWR

Flight Track Log - Related Links

Times and Time Zones

All times are in EST time to prevent confusion due to time zone crossing. See the UAL4678 flight status page for this flight to view local times or setup timezone preferences in your user account.

Time Position Orientation Groundspeed Altitude Reporting Facility
EST Latitude Longitude Course Direction KTS MPH feet Rate Location/Type
12:14PM 44.9000 -93.2833 154° Southeast 193 222 3,100  Level Minneapolis TRACON
12:15PM 44.8667 -93.3500 235° Southwest 249 287 5,400 2,040 Climbing Minneapolis TRACON
12:16PM 44.8167 -93.3000 145° Southeast 253 291 7,200 2,040 Climbing Minneapolis TRACON
12:17PM 44.7667 -93.2167 130° Southeast 285 328 9,500 1,740 Climbing Minneapolis TRACON
12:19PM 44.7539 -92.2352 122° Southeast  Level Estimated
12:19PM 44.6950 -93.0753 125° Southeast 314 361 11,600  Level Minneapolis Center
12:20PM 44.6474 -92.1618 154° Southeast  Level FlightAware Approximate
12:20PM 44.6328 -92.9650 128° Southeast 354 407 12,800  Level Minneapolis Center
12:21PM 44.5675 -92.8483 128° Southeast 377 434 13,900 1,080 Climbing Minneapolis Center
12:22PM 44.4986 -92.7269 128° Southeast 396 456 15,100 1,080 Climbing Minneapolis Center
12:23PM 44.4283 -92.6036 129° Southeast 404 465 16,200 1,200 Climbing Minneapolis Center
12:24PM 44.3425 -92.4503 128° Southeast 418 481 17,600 1,140 Climbing Minneapolis Center
12:25PM 44.2792 -92.3136 123° Southeast 418 481 18,600 900 Climbing Minneapolis Center
12:26PM 44.2186 -92.1664 120° Southeast 432 497 19,500 840 Climbing Minneapolis Center
12:27PM 44.1533 -92.0178 121° Southeast 444 511 20,400 780 Climbing Minneapolis Center
12:28PM 44.0867 -91.8667 122° Southeast 453 521 21,200 780 Climbing Minneapolis Center
12:29PM 44.0183 -91.7119 122° Southeast 465 535 22,100 780 Climbing Minneapolis Center
12:30PM 43.9453 -91.5458 121° Southeast 470 541 22,900 900 Climbing Minneapolis Center
12:31PM 43.8608 -91.3800 125° Southeast 476 548 24,000 900 Climbing Minneapolis Center
12:32PM 43.7756 -91.2450 131° Southeast 471 542 24,800 780 Climbing Minneapolis Center
12:33PM 43.6925 -91.1075 130° Southeast 468 539 25,600 780 Climbing Minneapolis Center
12:34PM 43.6083 -90.9708 130° Southeast 468 539 26,500 780 Climbing Minneapolis Center
12:35PM 43.5247 -90.8356 130° Southeast 466 536 27,300 720 Climbing Minneapolis Center
12:36PM 43.4414 -90.7011 130° Southeast 463 533 28,100 780 Climbing Minneapolis Center
12:37PM 43.3583 -90.5681 131° Southeast 461 531 29,000 900 Climbing Minneapolis Center
12:39PM 43.2581 -90.4092 131° Southeast 460 529 30,000 900 Climbing Minneapolis Center
12:40PM 43.1756 -90.2772 131° Southeast 459 528 30,900 840 Climbing Minneapolis Center
12:41PM 43.0842 -90.1322 131° Southeast 460 529 31,800 780 Climbing Minneapolis Center
12:42PM 43.0006 -89.9981 130° Southeast 465 535 32,600 720 Climbing Minneapolis Center
12:43PM 42.9278 -89.8506 124° Southeast 470 541 33,400 780 Climbing Minneapolis Center
12:44PM 42.8256 -89.6436 124° Southeast 470 541 34,600 660 Climbing Chicago Center
12:45PM 42.7542 -89.4956 123° Southeast 471 542 35,000 180 Climbing Chicago Center
12:46PM 42.6794 -89.3444 124° Southeast 483 556 35,000  Level Chicago Center
12:47PM 42.6022 -89.1903 124° Southeast 495 570 35,000  Level Chicago Center
12:48PM 42.5092 -89.0039 124° Southeast 499 574 35,000  Level Chicago Center
12:49PM 42.4317 -88.8469 124° Southeast 504 580 35,000  Level Chicago Center
12:50PM 42.3536 -88.6919 124° Southeast 502 578 35,000  Level Chicago Center
12:51PM 42.2944 -88.5333 117° Southeast 502 578 35,000  Level Chicago Center
12:52PM 42.2822 -88.3386 95° East 519 597 35,000  Level Chicago Center
12:53PM 42.2722 -88.1436 94° East 521 600 35,000  Level Chicago Center
12:54PM 42.2597 -87.9097 94° East 519 597 35,000  Level Chicago Center
12:55PM 42.2489 -87.7131 94° East 523 602 35,000  Level Chicago Center
12:56PM 42.2372 -87.5175 95° East 524 603 35,000  Level Chicago Center
12:57PM 42.2250 -87.3197 95° East 527 606 35,000  Level Chicago Center
12:58PM 42.2139 -87.1222 94° East 529 609 35,000  Level Chicago Center
12:59PM 42.1978 -86.8839 95° East 532 612 35,000  Level Chicago Center
01:01PM 42.1844 -86.6833 95° East 536 617 35,000  Level Chicago Center
01:02PM 42.1775 -86.5067 93° East 539 620 35,000  Level Chicago Center
01:03PM 42.1597 -86.2658 96° East 540 621 35,000  Level Chicago Center
01:04PM 42.1442 -86.0650 96° East 539 620 35,000  Level Chicago Center
01:05PM 42.1300 -85.8656 95° East 537 618 35,000  Level Chicago Center
01:06PM 42.1153 -85.6642 96° East 537 618 35,000  Level Chicago Center
01:07PM 42.1014 -85.4622 95° East 538 619 35,000  Level Chicago Center
01:08PM 42.0861 -85.2611 96° East 536 617 35,000  Level Chicago Center
01:09PM 42.0694 -85.0572 96° East 542 624 35,000  Level Chicago Center
01:10PM 42.0544 -84.8550 96° East 541 623 35,000  Level Chicago Center
01:11PM 42.0375 -84.6544 96° East 540 621 35,000  Level Chicago Center
01:12PM 42.0183 -84.4131 96° East 542 624 35,000  Level Chicago Center
01:12PM 42.0092 -84.3300 98° East 540 621 35,000  Level Cleveland Center
01:13PM 41.9889 -84.1006 97° East 541 623 35,000  Level Cleveland Center
01:14PM 41.9725 -83.9008 96° East 543 625 35,000  Level Cleveland Center
01:15PM 41.9942 -83.7067 81° East 536 617 35,000  Level Cleveland Center
01:16PM 42.0447 -83.4978 72° East 535 616 35,000 120 Level Cleveland Center
01:18PM 42.0906 -83.3061 72° East 535 616 35,300 660 Climbing Cleveland Center
01:19PM 42.1364 -83.1117 72° East 528 608 36,400 780 Climbing Cleveland Center
01:20PM 42.1800 -82.9306 72° East 517 595 37,000 240 Climbing Cleveland Center
01:21PM 42.2228 -82.7444 73° East 521 600 37,000  Level Cleveland Center
01:22PM 42.2675 -82.5556 72° East 530 610 37,000  Level Cleveland Center
01:23PM 42.3122 -82.3619 73° East 540 621 37,000  Level Cleveland Center
01:24PM 42.2975 -82.1594 96° East 550 633 37,000  Level Cleveland Center
01:25PM 42.2058 -81.9892 126° Southeast 521 600 37,000  Level Cleveland Center
01:26PM 42.0864 -81.8947 150° Southeast 494 568 37,000  Level Cleveland Center
01:27PM 41.9639 -81.7469 138° Southeast 524 603 37,000  Level Cleveland Center
01:28PM 41.9261 -81.5478 104° East 549 632 37,000  Level Cleveland Center
01:29PM 41.9000 -81.3422 100° East 551 634 37,000  Level Cleveland Center
01:30PM 41.8731 -81.1353 100° East 555 639 37,000  Level Cleveland Center
01:31PM 41.8467 -80.9297 100° East 553 636 37,000  Level Cleveland Center
01:32PM 41.8200 -80.7219 100° East 558 642 37,000  Level Cleveland Center
01:33PM 41.7947 -80.5150 99° East 557 641 37,000  Level Cleveland Center
01:34PM 41.7736 -80.3064 98° East 559 643 37,000  Level Cleveland Center
01:35PM 41.7531 -80.1000 98° East 555 639 37,000  Level Cleveland Center
01:36PM 41.7306 -79.8928 98° East 557 641 37,000  Level Cleveland Center
01:37PM 41.7061 -79.6519 98° East 556 640 37,000  Level Cleveland Center
01:38PM 41.6844 -79.4675 99° East 554 638 37,000  Level Cleveland Center
01:39PM 41.6594 -79.2306 98° East 556 640 37,000  Level Cleveland Center
01:41PM 41.6122 -78.8131 98° East 558 642 37,000  Level Cleveland Center
01:42PM 41.5889 -78.6100 99° East 554 638 37,000 -300 Level Cleveland Center
01:43PM 41.5647 -78.4053 99° East 556 640 36,400 -1,740 Descending Cleveland Center
01:44PM 41.5403 -78.2036 99° East 551 634 33,500 -2,640 Descending Cleveland Center
01:45PM 41.5169 -78.0069 99° East 541 623 31,000 -1,260 Descending Cleveland Center
01:46PM 41.4903 -77.8139 100° East 532 612 31,000 -60 Level Cleveland Center
01:47PM 41.4622 -77.6192 101° East 534 615 30,900 -780 Descending Cleveland Center
01:49PM 41.4253 -77.3728 101° East 521 600 29,300 -1,560 Descending New York Center
01:50PM 41.4014 -77.2044 101° East 489 563 27,500 -1,800 Descending New York Center
01:51PM 41.3461 -77.0664 118° Southeast 444 511 25,700 -1,800 Descending New York Center
01:52PM 41.2733 -76.9436 128° Southeast 432 497 23,900 -1,860 Descending New York Center
01:53PM 41.2392 -76.7969 107° East 420 483 22,000 -1,920 Descending New York Center
01:54PM 41.2197 -76.6492 100° East 406 467 20,100 -1,440 Descending New York Center
01:55PM 41.1997 -76.5011 100° East 406 467 19,200 -900 Descending New York Center
01:56PM 41.1853 -76.3703 98° East 400 460 18,400 -780 Descending New York Center
01:57PM 41.1636 -76.2086 100° East 393 452 17,700 -900 Descending New York Center
01:58PM 41.1453 -76.0639 100° East 393 452 16,700 -1,080 Descending New York Center
01:59PM 41.1128 -75.9483 110° East 388 447 15,600 -1,080 Descending New York Center
02:00PM 41.0808 -75.8222 109° East 369 425 14,600 -1,140 Descending New York Center
02:01PM 41.0425 -75.6872 111° Southeast 351 404 13,400 -840 Descending New York Center
02:02PM 41.0122 -75.5667 108° East 351 404 13,000 -600 Descending New York Center
02:03PM 40.9806 -75.4683 113° Southeast 351 404 12,300 -1,200 Descending New York Center
02:04PM 40.9406 -75.3228 110° East 351 404 10,700 -1,440 Descending New York Center
02:05PM 40.9075 -75.2081 111° Southeast 346 398 9,500 -1,260 Descending New York Center
02:06PM 40.8761 -75.0961 110° East 334 384 8,200 -1,260 Descending New York Center
02:07PM 40.8506 -74.9986 109° East 323 372 7,000 -600 Descending New York Center
02:08PM 40.8483 -74.8831 91° East 292 336 7,000  Level New York Center
02:09PM 40.8392 -74.7839 97° East 283 326 7,000 -480 Level New York Center
02:10PM 40.7694 -74.7522 161° South 234 269 6,100 -540 Descending New York Center
02:11PM 40.7131 -74.7572 184° South 219 252 6,000 -60 Descending New York Center
02:12PM 40.6567 -74.6992 142° Southeast 232 267 6,000  Level New York Center
02:13PM 40.6044 -74.6389 139° Southeast 255 293 6,000  Level New York Center
02:14PM 40.6000 -74.5333 93° East 259 298 6,000  Level New York TRACON
02:15PM 40.6500 -74.5333 360° North 183 211 6,000  Level New York TRACON
02:16PM 40.7000 -74.5500 346° North 172 198 6,000  Level New York TRACON
02:18PM 40.7928 -74.5508 360° North 179 206 6,000 -120 Level New York Center
02:19PM 40.8667 -74.5333 10° North 204 235 5,800 -360 Descending New York TRACON
02:21PM 40.9500 -74.4333 42° Northeast 233 268 5,000 -240 Descending New York TRACON
02:23PM 40.9500 -74.2667 90° East 260 299 4,900 -360 Descending New York TRACON
02:24PM 40.9500 -74.1667 90° East 238 274 4,000 -420 Descending New York TRACON
02:26PM 40.9000 -74.0500 120° Southeast 193 222 3,800 -300 Descending New York TRACON
02:27PM 40.8500 -74.0667 194° South 163 188 3,100 -600 Descending New York TRACON
02:28PM 40.8167 -74.0833 201° Southwest 159 183 2,700 -600 Descending New York TRACON
02:29PM 40.7833 -74.1167 217° Southwest 154 177 2,000 -900 Descending New York TRACON
02:30PM 40.7333 -74.1333 194° South 159 183 1,000 -900 Descending New York TRACON
02:31PM 40.7000 -74.1667 217° Southwest 125 144 200 -840 Descending New York TRACON